Time;durP1;ratioP1;P1;durP2;ratioP2;P2;SDS_P1;SDS_P2;PMS_P1;PMS_P2;Temp;Humidity;BMP_temperature;BMP_pressure;BME280_temperature;BME280_humidity;BME280_pressure;Samples;Min_cycle;Max_cycle;Signal;HPM_P1;HPM_P2
2024/01/25 00:01:54;;;;;;;21.35;5.75;;;13.50;99.90;;;;;;4250328;27;20047;-58
2024/01/25 00:03:57;;;;;;;34.53;7.07;;;13.30;99.90;;;;;;4250219;27;20429;-58
2024/01/25 00:06:00;;;;;;;24.52;6.10;;;13.00;99.90;;;;;;4250155;27;20043;-58
2024/01/25 00:08:02;;;;;;;26.88;5.88;;;13.10;99.90;;;;;;4250196;27;20402;-58
2024/01/25 00:10:07;;;;;;;23.45;6.00;;;13.10;99.90;;;;;;4249663;27;20547;-58
2024/01/25 00:12:09;;;;;;;28.77;7.28;;;13.10;99.90;;;;;;4231740;28;20455;-58
2024/01/25 00:14:11;;;;;;;29.65;6.97;;;13.10;99.90;;;;;;4249895;27;20043;-58
2024/01/25 00:16:13;;;;;;;23.25;5.90;;;13.00;99.90;;;;;;4249983;27;20047;-59
2024/01/25 00:18:17;;;;;;;27.02;5.88;;;13.00;99.90;;;;;;4250270;27;20051;-58
2024/01/25 00:20:19;;;;;;;23.17;5.90;;;13.10;99.90;;;;;;4249872;27;20063;-58
2024/01/25 00:22:21;;;;;;;24.05;5.40;;;12.90;99.90;;;;;;4250042;27;20096;-57
2024/01/25 00:24:26;;;;;;;26.38;6.20;;;12.90;99.90;;;;;;4249193;27;20121;-58
2024/01/25 00:26:28;;;;;;;24.25;5.22;;;12.90;99.90;;;;;;4250161;27;20051;-58
2024/01/25 00:28:30;;;;;;;20.00;5.75;;;13.00;99.90;;;;;;4249635;27;20109;-58
2024/01/25 00:30:32;;;;;;;21.90;4.97;;;13.00;99.90;;;;;;4249846;27;20053;-59
2024/01/25 00:32:34;;;;;;;25.27;5.60;;;12.90;99.90;;;;;;4249730;27;20043;-58
2024/01/25 00:34:38;;;;;;;23.73;5.53;;;12.70;99.90;;;;;;4250773;27;20047;-57
2024/01/25 00:36:41;;;;;;;23.70;5.57;;;12.80;99.90;;;;;;4251181;27;20401;-58
2024/01/25 00:38:44;;;;;;;26.10;5.78;;;12.80;99.90;;;;;;4254851;27;20076;-58
2024/01/25 00:40:47;;;;;;;22.33;5.45;;;12.70;99.90;;;;;;4255476;27;20050;-61
2024/01/25 00:42:58;;;;;;;25.77;5.50;;;12.80;99.90;;;;;;4251462;27;20070;-59
2024/01/25 00:45:01;;;;;;;21.88;4.78;;;12.90;99.90;;;;;;4250337;27;20409;-59
2024/01/25 00:47:03;;;;;;;26.88;5.53;;;12.90;99.90;;;;;;4231559;28;20043;-58
2024/01/25 00:49:06;;;;;;;19.95;4.72;;;12.90;99.90;;;;;;4249739;27;20065;-58
2024/01/25 00:51:15;;;;;;;21.42;5.03;;;12.80;99.90;;;;;;4231564;28;20044;-59
2024/01/25 00:53:18;;;;;;;22.25;5.45;;;12.80;99.90;;;;;;4249134;27;20035;-58
2024/01/25 00:55:21;;;;;;;22.70;5.03;;;12.80;99.90;;;;;;4249381;27;20046;-58
2024/01/25 00:57:24;;;;;;;25.80;4.93;;;12.90;99.90;;;;;;4231334;28;20064;-59
2024/01/25 00:59:26;;;;;;;22.73;5.40;;;12.90;99.90;;;;;;4249451;27;20494;-58
2024/01/25 01:01:29;;;;;;;24.08;5.60;;;12.90;99.90;;;;;;4249452;27;20053;-61
2024/01/25 01:03:32;;;;;;;19.35;4.80;;;12.90;99.90;;;;;;4249651;27;20055;-58
2024/01/25 01:05:35;;;;;;;22.85;5.22;;;12.80;99.90;;;;;;4249346;27;20053;-59
2024/01/25 01:07:44;;;;;;;22.48;4.85;;;12.80;99.90;;;;;;4249216;27;20074;-58
2024/01/25 01:09:46;;;;;;;22.13;5.32;;;12.80;99.90;;;;;;4251945;27;20138;-69
2024/01/25 01:11:51;;;;;;;21.85;5.43;;;12.90;99.90;;;;;;4250888;27;20055;-59
2024/01/25 01:13:53;;;;;;;21.67;4.57;;;12.90;99.90;;;;;;4250609;27;20446;-59
2024/01/25 01:15:55;;;;;;;21.27;4.75;;;12.90;99.90;;;;;;4250930;27;20043;-60
2024/01/25 01:17:57;;;;;;;21.38;5.10;;;12.90;99.90;;;;;;4251263;27;20040;-59
2024/01/25 01:19:59;;;;;;;23.35;5.15;;;12.90;99.90;;;;;;4250444;27;20459;-59
2024/01/25 01:22:02;;;;;;;22.27;5.00;;;12.90;99.90;;;;;;4249431;27;20053;-63
2024/01/25 01:24:06;;;;;;;25.55;5.60;;;12.90;99.90;;;;;;4249703;27;20073;-66
2024/01/25 01:26:08;;;;;;;22.07;4.50;;;12.90;99.90;;;;;;4250614;27;20036;-58
2024/01/25 01:28:10;;;;;;;19.48;4.75;;;12.90;99.90;;;;;;4250054;27;20047;-60
2024/01/25 01:30:13;;;;;;;19.55;5.15;;;12.90;99.90;;;;;;4249641;27;20414;-62
2024/01/25 01:32:19;;;;;;;20.80;5.10;;;12.80;99.90;;;;;;4249714;27;20054;-63
2024/01/25 01:34:21;;;;;;;26.88;5.10;;;12.70;99.90;;;;;;4250060;27;20047;-62
2024/01/25 01:36:24;;;;;;;25.48;5.13;;;12.70;99.90;;;;;;4248104;27;20047;-59
2024/01/25 01:38:26;;;;;;;25.55;5.13;;;12.70;99.90;;;;;;4248734;27;20047;-58
2024/01/25 01:40:29;;;;;;;27.55;5.13;;;12.70;99.90;;;;;;4249023;27;20066;-58
2024/01/25 01:42:33;;;;;;;23.25;4.88;;;12.70;99.90;;;;;;4248763;27;20067;-58
2024/01/25 01:44:35;;;;;;;20.58;4.93;;;12.70;99.90;;;;;;4248659;27;20046;-59
2024/01/25 01:46:39;;;;;;;21.55;4.85;;;12.80;99.90;;;;;;4248671;27;20387;-58
2024/01/25 01:48:42;;;;;;;24.65;5.38;;;12.90;99.90;;;;;;4248604;27;20516;-58
2024/01/25 01:50:45;;;;;;;20.88;5.55;;;12.90;99.90;;;;;;4230067;28;20074;-58
2024/01/25 01:52:49;;;;;;;15.15;4.28;;;12.90;99.90;;;;;;4248669;27;20391;-58
2024/01/25 01:54:51;;;;;;;20.90;5.22;;;12.80;99.90;;;;;;4248712;27;20054;-58
2024/01/25 01:56:55;;;;;;;21.45;4.57;;;12.90;99.90;;;;;;4231814;28;20040;-59
2024/01/25 01:58:59;;;;;;;21.90;4.50;;;12.90;99.90;;;;;;4231549;28;20047;-58
2024/01/25 02:01:03;;;;;;;26.13;5.20;;;12.80;99.90;;;;;;4231298;28;20071;-58
2024/01/25 02:03:06;;;;;;;16.10;3.33;;;12.80;99.90;;;;;;4231130;28;20079;-58
2024/01/25 02:05:09;;;;;;;24.90;4.78;;;12.80;99.90;;;;;;4231029;28;20425;-58
2024/01/25 02:07:12;;;;;;;17.23;4.13;;;12.80;99.90;;;;;;4231449;28;20047;-58
2024/01/25 02:09:14;;;;;;;18.08;5.05;;;12.80;99.90;;;;;;4230977;28;20121;-64
2024/01/25 02:11:17;;;;;;;21.75;5.03;;;12.80;99.90;;;;;;4231436;28;20047;-58
2024/01/25 02:13:21;;;;;;;21.30;4.00;;;12.80;99.90;;;;;;4230851;28;20465;-58
2024/01/25 02:15:23;;;;;;;23.50;5.45;;;12.80;99.90;;;;;;4231198;28;20433;-58
2024/01/25 02:17:25;;;;;;;19.48;4.28;;;12.80;99.90;;;;;;4231023;28;20043;-58
2024/01/25 02:19:27;;;;;;;23.15;4.95;;;12.80;99.90;;;;;;4231116;28;20069;-59
2024/01/25 02:21:30;;;;;;;23.25;4.55;;;12.80;99.90;;;;;;4230777;28;20043;-58
2024/01/25 02:23:33;;;;;;;18.50;4.97;;;12.80;99.90;;;;;;4231000;28;20051;-58
2024/01/25 02:25:35;;;;;;;23.15;5.05;;;12.80;99.90;;;;;;4231005;28;20399;-58
2024/01/25 02:27:40;;;;;;;19.60;4.60;;;12.80;99.90;;;;;;4231180;28;20047;-58
2024/01/25 02:29:42;;;;;;;19.88;5.05;;;12.90;99.90;;;;;;4231144;28;20549;-58
2024/01/25 02:31:44;;;;;;;16.00;4.13;;;12.80;99.90;;;;;;4230798;28;20406;-58
2024/01/25 02:33:46;;;;;;;21.58;4.60;;;12.70;99.90;;;;;;4230794;28;20039;-57
2024/01/25 02:35:48;;;;;;;22.30;5.18;;;12.60;99.90;;;;;;4230769;28;20483;-58
2024/01/25 02:37:52;;;;;;;19.48;4.78;;;12.70;99.90;;;;;;4231274;28;20070;-57
2024/01/25 02:39:55;;;;;;;20.40;4.72;;;12.70;99.90;;;;;;4230914;28;20058;-59
2024/01/25 02:41:57;;;;;;;22.83;4.90;;;12.70;99.90;;;;;;4231084;28;20044;-58
2024/01/25 02:44:01;;;;;;;18.85;4.70;;;12.70;99.90;;;;;;4230938;28;20112;-58
2024/01/25 02:46:03;;;;;;;20.65;4.53;;;12.70;99.90;;;;;;4230716;28;20470;-58
2024/01/25 02:48:06;;;;;;;31.23;5.80;;;12.70;99.90;;;;;;4230858;28;20040;-58
2024/01/25 02:50:09;;;;;;;21.17;5.07;;;12.70;99.90;;;;;;4230532;28;20051;-58
2024/01/25 02:52:11;;;;;;;26.83;4.28;;;12.70;99.90;;;;;;4230792;28;20058;-59
2024/01/25 02:54:13;;;;;;;25.17;5.47;;;12.60;99.90;;;;;;4230880;28;20475;-58
2024/01/25 02:56:16;;;;;;;23.98;4.88;;;12.70;99.90;;;;;;4242406;28;20047;-58
2024/01/25 02:58:18;;;;;;;21.70;5.30;;;12.70;99.90;;;;;;4247793;28;20054;-58
2024/01/25 03:00:21;;;;;;;19.38;4.32;;;12.60;99.90;;;;;;4247842;28;20066;-58
2024/01/25 03:02:23;;;;;;;25.55;6.05;;;12.70;99.90;;;;;;4247589;28;20112;-59
2024/01/25 03:04:25;;;;;;;19.40;4.95;;;12.60;99.90;;;;;;4247852;28;20066;-58
2024/01/25 03:06:27;;;;;;;17.85;4.35;;;12.60;99.90;;;;;;4247730;28;20115;-59
2024/01/25 03:08:29;;;;;;;21.17;5.35;;;12.60;99.90;;;;;;4247446;28;20050;-58
2024/01/25 03:10:32;;;;;;;25.50;5.13;;;12.60;99.90;;;;;;4247452;28;20047;-58
2024/01/25 03:12:35;;;;;;;17.65;5.20;;;12.60;99.90;;;;;;4247402;28;20047;-58
2024/01/25 03:14:37;;;;;;;17.67;4.55;;;12.70;99.90;;;;;;4229308;28;20540;-58
2024/01/25 03:16:39;;;;;;;20.25;5.15;;;12.60;99.90;;;;;;4247638;28;20080;-58
2024/01/25 03:18:42;;;;;;;22.65;5.60;;;12.70;99.90;;;;;;4247413;28;20049;-58
2024/01/25 03:20:44;;;;;;;15.88;4.28;;;12.60;99.90;;;;;;4247534;28;20039;-58
2024/01/25 03:22:46;;;;;;;28.25;5.40;;;12.70;99.90;;;;;;4247630;28;20112;-58
2024/01/25 03:24:48;;;;;;;17.48;4.80;;;12.60;99.90;;;;;;4247445;28;20047;-58
2024/01/25 03:26:50;;;;;;;17.88;4.72;;;12.50;99.90;;;;;;4247398;28;20043;-58
2024/01/25 03:28:54;;;;;;;15.32;4.72;;;12.50;99.90;;;;;;4247288;28;20143;-58
2024/01/25 03:30:56;;;;;;;21.60;5.07;;;12.60;99.90;;;;;;4247788;28;20053;-59
2024/01/25 03:32:58;;;;;;;18.17;4.72;;;12.50;99.90;;;;;;4247680;28;20043;-58
2024/01/25 03:35:00;;;;;;;23.15;4.63;;;12.50;99.90;;;;;;4230653;28;20048;-58
2024/01/25 03:37:03;;;;;;;19.85;4.43;;;12.50;99.90;;;;;;4248826;28;20436;-58
2024/01/25 03:39:05;;;;;;;18.35;4.90;;;12.40;99.90;;;;;;4248707;28;20043;-58
2024/01/25 03:41:08;;;;;;;18.23;4.30;;;12.40;99.90;;;;;;4248919;28;20054;-58
2024/01/25 03:43:09;;;;;;;16.63;4.65;;;12.40;99.90;;;;;;4247354;28;20043;-58
2024/01/25 03:45:23;;;;;;;19.65;4.70;;;12.40;99.90;;;;;;4247447;28;20387;-58
2024/01/25 03:47:25;;;;;;;17.88;4.63;;;12.30;99.90;;;;;;4246932;28;20046;-58
2024/01/25 03:49:27;;;;;;;22.88;5.35;;;12.30;99.90;;;;;;4247491;28;20043;-58
2024/01/25 03:51:30;;;;;;;21.50;5.22;;;12.30;99.90;;;;;;4247377;28;20039;-58
2024/01/25 03:53:32;;;;;;;18.27;4.47;;;12.30;99.90;;;;;;4247107;28;20047;-58
2024/01/25 03:55:34;;;;;;;18.02;4.53;;;12.20;99.90;;;;;;4247076;28;20047;-58
2024/01/25 03:57:36;;;;;;;22.05;4.15;;;12.30;99.90;;;;;;4247469;27;20070;-58
2024/01/25 03:59:39;;;;;;;18.50;4.57;;;12.30;99.90;;;;;;4249697;27;20046;-58
2024/01/25 04:01:43;;;;;;;18.38;4.50;;;12.20;99.90;;;;;;4249602;27;20394;-58
2024/01/25 04:03:46;;;;;;;20.83;4.20;;;12.30;99.90;;;;;;4231911;28;20043;-58
2024/01/25 04:05:48;;;;;;;23.27;4.47;;;12.20;99.90;;;;;;4250317;27;20047;-58
2024/01/25 04:07:50;;;;;;;21.63;4.63;;;12.20;99.90;;;;;;4250273;27;20084;-58
2024/01/25 04:09:52;;;;;;;16.65;4.43;;;12.30;99.90;;;;;;4249997;27;20070;-58
2024/01/25 04:11:55;;;;;;;22.42;4.65;;;12.20;99.90;;;;;;4250085;27;20050;-59
2024/01/25 04:14:01;;;;;;;19.10;4.20;;;12.30;99.90;;;;;;4249810;27;20122;-58
2024/01/25 04:16:04;;;;;;;19.85;4.95;;;12.30;99.90;;;;;;4249826;27;20051;-58
2024/01/25 04:18:07;;;;;;;16.67;4.75;;;12.30;99.90;;;;;;4249958;27;20046;-59
2024/01/25 04:20:10;;;;;;;17.80;4.50;;;12.40;99.90;;;;;;4249960;27;20046;-59
2024/01/25 04:22:18;;;;;;;19.13;4.18;;;12.40;99.90;;;;;;4250090;27;20049;-58
2024/01/25 04:24:20;;;;;;;14.68;3.53;;;12.40;99.90;;;;;;4250035;27;20088;-58
2024/01/25 04:26:23;;;;;;;21.67;4.30;;;12.40;99.90;;;;;;4249961;27;20051;-58
2024/01/25 04:28:25;;;;;;;20.70;4.13;;;12.40;99.90;;;;;;4250002;27;20122;-58
2024/01/25 04:30:32;;;;;;;20.35;4.55;;;12.40;99.90;;;;;;4249517;27;20047;-58
2024/01/25 04:32:35;;;;;;;19.70;4.35;;;12.40;99.90;;;;;;4249804;27;20048;-57
2024/01/25 04:34:44;;;;;;;19.40;4.35;;;12.40;99.90;;;;;;4249617;27;20118;-58
2024/01/25 04:36:46;;;;;;;14.60;4.15;;;12.40;99.90;;;;;;4249767;27;20126;-57
2024/01/25 04:38:48;;;;;;;21.65;5.03;;;12.40;99.90;;;;;;4249733;27;20045;-59
2024/01/25 04:40:56;;;;;;;20.85;5.50;;;12.40;99.90;;;;;;4249708;27;20131;-58
2024/01/25 04:43:01;;;;;;;20.63;5.30;;;12.40;99.90;;;;;;4248980;27;20102;-57
2024/01/25 04:45:03;;;;;;;21.50;5.03;;;12.40;99.90;;;;;;4249375;27;20048;-58
2024/01/25 04:47:06;;;;;;;21.60;4.55;;;12.40;99.90;;;;;;4249531;27;20047;-59
2024/01/25 04:49:08;;;;;;;17.38;4.75;;;12.40;99.90;;;;;;4249600;27;20070;-59
2024/01/25 04:51:16;;;;;;;16.70;4.90;;;12.30;99.90;;;;;;4231433;28;20509;-59
2024/01/25 04:53:18;;;;;;;17.65;4.25;;;12.30;99.90;;;;;;4249421;27;20130;-57
2024/01/25 04:55:21;;;;;;;24.63;5.03;;;12.30;99.90;;;;;;4249519;27;20542;-57
2024/01/25 04:57:23;;;;;;;22.45;5.00;;;12.40;99.90;;;;;;4249325;27;20100;-58
2024/01/25 04:59:26;;;;;;;18.65;4.55;;;12.40;99.90;;;;;;4249132;27;20039;-59
2024/01/25 05:01:30;;;;;;;22.55;5.05;;;12.30;99.90;;;;;;4249454;27;20130;-58
2024/01/25 05:03:32;;;;;;;17.25;5.15;;;12.30;99.90;;;;;;4231066;28;20047;-58
2024/01/25 05:05:34;;;;;;;22.73;5.40;;;12.30;99.90;;;;;;4249485;27;20043;-57
2024/01/25 05:07:38;;;;;;;20.00;5.03;;;12.30;99.90;;;;;;4249490;27;20532;-59
2024/01/25 05:09:41;;;;;;;20.08;5.03;;;12.40;99.90;;;;;;4249174;27;20092;-58
2024/01/25 05:11:43;;;;;;;20.27;5.40;;;12.30;99.90;;;;;;4248843;27;20058;-58
2024/01/25 05:13:45;;;;;;;18.10;5.75;;;12.30;99.90;;;;;;4248659;27;20047;-58
2024/01/25 05:15:47;;;;;;;17.88;5.15;;;12.20;99.90;;;;;;4249300;27;20504;-58
2024/01/25 05:17:49;;;;;;;20.60;5.80;;;12.20;99.90;;;;;;4249304;27;20050;-58
2024/01/25 05:19:52;;;;;;;19.75;6.43;;;12.20;99.90;;;;;;4249439;27;20047;-61
2024/01/25 05:21:54;;;;;;;16.23;5.45;;;12.20;99.90;;;;;;4249159;27;20073;-58
2024/01/25 05:23:58;;;;;;;16.50;5.53;;;12.30;99.90;;;;;;4249669;27;20047;-59
2024/01/25 05:26:01;;;;;;;16.58;6.55;;;12.30;99.90;;;;;;4250126;27;20043;-60
2024/01/25 05:28:04;;;;;;;19.10;6.28;;;12.30;99.90;;;;;;4250142;27;20134;-58
2024/01/25 05:30:07;;;;;;;21.75;8.02;;;12.30;99.90;;;;;;4248782;27;20054;-58
2024/01/25 05:32:12;;;;;;;21.27;7.88;;;12.30;99.90;;;;;;4248929;27;20043;-59
2024/01/25 05:34:14;;;;;;;23.45;8.77;;;12.20;99.90;;;;;;4249159;27;20536;-58
2024/01/25 05:36:16;;;;;;;23.02;8.52;;;12.20;99.90;;;;;;4248801;27;20043;-59
2024/01/25 05:38:18;;;;;;;24.02;8.60;;;12.20;99.90;;;;;;4248810;27;20044;-58
2024/01/25 05:40:22;;;;;;;20.70;10.13;;;12.30;99.90;;;;;;4248906;27;20513;-58
2024/01/25 05:42:24;;;;;;;26.10;9.88;;;12.20;99.90;;;;;;4248795;27;20122;-58
2024/01/25 05:44:26;;;;;;;31.48;11.20;;;12.20;99.90;;;;;;4248481;27;20043;-57
2024/01/25 05:46:28;;;;;;;28.63;11.98;;;12.10;99.90;;;;;;4230200;28;20050;-57
2024/01/25 05:48:30;;;;;;;34.40;13.52;;;12.10;99.90;;;;;;4248991;27;20046;-56
2024/01/25 05:50:33;;;;;;;23.08;9.43;;;12.00;99.90;;;;;;4249057;27;20448;-56
2024/01/25 05:52:37;;;;;;;24.75;10.32;;;12.20;99.90;;;;;;4248837;27;20051;-57
2024/01/25 05:54:39;;;;;;;25.90;11.25;;;12.20;99.90;;;;;;4248758;27;20039;-57
2024/01/25 05:56:43;;;;;;;24.73;9.75;;;12.40;99.90;;;;;;4230344;28;20130;-58
2024/01/25 05:58:45;;;;;;;24.15;11.25;;;12.40;99.90;;;;;;4248014;27;20077;-58
2024/01/25 06:00:47;;;;;;;27.15;11.93;;;12.40;99.90;;;;;;4248443;27;20490;-58
2024/01/25 06:02:49;;;;;;;28.63;11.57;;;12.30;99.90;;;;;;4248529;27;20051;-58
2024/01/25 06:04:51;;;;;;;26.50;11.63;;;12.40;99.90;;;;;;4248470;27;20055;-58
2024/01/25 06:06:54;;;;;;;23.60;9.73;;;12.40;99.90;;;;;;4248252;27;20417;-59
2024/01/25 06:08:57;;;;;;;23.63;10.27;;;12.50;99.90;;;;;;4248160;27;20043;-59
2024/01/25 06:11:13;;;;;;;21.25;9.20;;;12.40;99.90;;;;;;4248246;27;20039;-58
2024/01/25 06:13:16;;;;;;;20.65;9.85;;;12.50;99.90;;;;;;4247731;27;20501;-62
2024/01/25 06:15:18;;;;;;;15.20;8.10;;;12.60;99.90;;;;;;4248383;27;20050;-58
2024/01/25 06:17:20;;;;;;;22.02;9.43;;;12.70;99.90;;;;;;4248257;27;20055;-57
2024/01/25 06:19:22;;;;;;;17.95;8.95;;;12.70;99.90;;;;;;4248495;27;20047;-58
2024/01/25 06:21:24;;;;;;;19.30;9.50;;;12.70;99.90;;;;;;4247962;27;20042;-58
2024/01/25 06:23:27;;;;;;;18.30;9.32;;;12.70;99.90;;;;;;4249647;27;20043;-62
2024/01/25 06:25:30;;;;;;;17.88;8.93;;;12.70;99.90;;;;;;4249644;27;20035;-59
2024/01/25 06:27:33;;;;;;;16.35;8.25;;;12.60;99.90;;;;;;4248625;27;20047;-63
2024/01/25 06:29:36;;;;;;;14.95;7.60;;;12.60;99.90;;;;;;4249471;27;20701;-58
2024/01/25 06:31:42;;;;;;;14.75;8.02;;;12.70;99.90;;;;;;4248634;27;20047;-59
2024/01/25 06:33:47;;;;;;;14.60;8.10;;;12.60;99.90;;;;;;4248384;27;20047;-59
2024/01/25 06:35:49;;;;;;;15.20;8.80;;;12.50;99.90;;;;;;4253496;27;20047;-59
2024/01/25 06:37:52;;;;;;;13.32;7.38;;;12.50;99.90;;;;;;4250064;27;20047;-58
2024/01/25 06:39:54;;;;;;;15.20;9.55;;;12.50;99.90;;;;;;4252136;27;20051;-58
2024/01/25 06:41:56;;;;;;;13.90;8.80;;;12.60;99.90;;;;;;4247724;27;20051;-58
2024/01/25 06:43:59;;;;;;;14.90;7.97;;;12.60;99.90;;;;;;4247683;27;20074;-58
2024/01/25 06:46:03;;;;;;;14.90;8.63;;;12.60;99.90;;;;;;4247886;27;20043;-58
2024/01/25 06:48:06;;;;;;;15.38;8.25;;;12.60;99.90;;;;;;4248012;27;20043;-58
2024/01/25 06:50:09;;;;;;;15.68;9.05;;;12.50;99.90;;;;;;4247847;27;20069;-58
2024/01/25 06:52:12;;;;;;;13.77;7.38;;;12.60;99.90;;;;;;4247804;27;20160;-58
2024/01/25 06:54:14;;;;;;;14.30;8.23;;;12.60;99.90;;;;;;4247912;28;20051;-58
2024/01/25 06:56:16;;;;;;;14.68;8.90;;;12.60;99.90;;;;;;4247138;28;20108;-58
2024/01/25 06:58:19;;;;;;;15.68;10.13;;;12.60;99.90;;;;;;4247897;28;20490;-58
2024/01/25 07:00:22;;;;;;;19.70;10.90;;;12.60;99.90;;;;;;4248030;28;20047;-59
2024/01/25 07:02:26;;;;;;;17.17;9.52;;;12.70;99.90;;;;;;4229502;28;20040;-56
2024/01/25 07:04:29;;;;;;;14.50;8.70;;;12.70;99.90;;;;;;4247778;28;20043;-56
2024/01/25 07:06:31;;;;;;;16.05;11.18;;;12.80;99.90;;;;;;4247872;28;20043;-58
2024/01/25 07:08:34;;;;;;;23.02;11.88;;;12.80;99.90;;;;;;4247712;28;20450;-57
2024/01/25 07:10:36;;;;;;;15.20;10.30;;;12.70;99.90;;;;;;4246983;28;20134;-58
2024/01/25 07:12:38;;;;;;;20.30;10.77;;;12.80;99.90;;;;;;4218272;28;20063;-58
2024/01/25 07:14:40;;;;;;;16.85;13.07;;;12.90;99.90;;;;;;4214005;28;20051;-58
2024/01/25 07:16:42;;;;;;;20.85;12.05;;;12.80;99.90;;;;;;4212650;28;20040;-57
2024/01/25 07:18:46;;;;;;;18.55;12.55;;;12.90;99.90;;;;;;4213684;28;20051;-58
2024/01/25 07:20:48;;;;;;;16.92;11.25;;;12.90;99.90;;;;;;4213708;28;20078;-58
2024/01/25 07:22:50;;;;;;;19.85;12.02;;;12.90;99.90;;;;;;4213858;28;20051;-58
2024/01/25 07:24:52;;;;;;;21.75;14.05;;;13.00;99.90;;;;;;4213112;28;20093;-56
2024/01/25 07:26:54;;;;;;;20.08;11.35;;;13.00;99.90;;;;;;4213792;28;20048;-56
2024/01/25 07:28:59;;;;;;;16.23;11.57;;;13.00;99.90;;;;;;4213641;28;20040;-56
2024/01/25 07:31:01;;;;;;;15.23;10.88;;;13.00;99.90;;;;;;4213671;28;20048;-56
2024/01/25 07:33:04;;;;;;;21.52;12.95;;;13.00;99.90;;;;;;4213591;28;20143;-56
2024/01/25 07:35:09;;;;;;;22.33;12.55;;;13.00;99.90;;;;;;4216987;28;20040;-56
2024/01/25 07:37:11;;;;;;;19.42;13.23;;;13.00;99.90;;;;;;4216891;28;20044;-56
2024/01/25 07:39:13;;;;;;;22.10;13.73;;;13.00;99.90;;;;;;4216402;28;20048;-55
2024/01/25 07:41:16;;;;;;;18.70;12.27;;;13.00;99.90;;;;;;4216859;28;20040;-55
2024/01/25 07:43:18;;;;;;;19.92;13.10;;;13.10;99.90;;;;;;4216448;28;20063;-56
2024/01/25 07:45:20;;;;;;;16.00;11.25;;;13.00;99.90;;;;;;4216949;28;20384;-56
2024/01/25 07:47:22;;;;;;;18.38;11.85;;;13.00;99.90;;;;;;4216780;28;20044;-58
2024/01/25 07:49:25;;;;;;;16.63;11.60;;;13.10;99.90;;;;;;4216648;28;20063;-58
2024/01/25 07:51:29;;;;;;;23.35;11.73;;;13.10;99.90;;;;;;4216515;28;20055;-58
2024/01/25 07:53:31;;;;;;;15.50;10.13;;;13.10;99.90;;;;;;4216304;28;20044;-58
2024/01/25 07:55:33;;;;;;;18.50;11.57;;;13.10;99.90;;;;;;4216591;28;20077;-58
2024/01/25 07:57:35;;;;;;;22.48;12.23;;;13.10;99.90;;;;;;4215572;28;20054;-58
2024/01/25 07:59:37;;;;;;;20.42;11.80;;;13.10;99.90;;;;;;4216492;28;20048;-58
2024/01/25 08:01:40;;;;;;;25.30;12.32;;;13.10;99.90;;;;;;4216477;28;20048;-59
2024/01/25 08:03:42;;;;;;;23.80;11.88;;;13.10;99.90;;;;;;4215246;28;20416;-58
2024/01/25 08:05:44;;;;;;;20.30;12.13;;;13.10;99.90;;;;;;4216330;28;20052;-58
2024/01/25 08:07:54;;;;;;;23.77;12.23;;;13.10;99.90;;;;;;4216128;28;20044;-55
2024/01/25 08:09:58;;;;;;;21.40;12.43;;;13.10;99.90;;;;;;4216329;28;20101;-55
2024/01/25 08:12:00;;;;;;;20.38;12.60;;;13.20;99.90;;;;;;4227575;27;20051;-56
2024/01/25 08:14:03;;;;;;;23.35;13.48;;;13.20;99.90;;;;;;4249980;27;20043;-55
2024/01/25 08:16:10;;;;;;;20.00;11.15;;;13.20;99.90;;;;;;4250501;27;20055;-56
2024/01/25 08:18:12;;;;;;;21.08;13.10;;;13.20;99.90;;;;;;4250476;27;20050;-56
2024/01/25 08:20:15;;;;;;;24.55;13.07;;;13.20;99.90;;;;;;4250293;27;20047;-56
2024/01/25 08:22:17;;;;;;;21.88;12.98;;;13.30;99.90;;;;;;4249653;27;20047;-56
2024/01/25 08:24:25;;;;;;;22.45;12.35;;;13.30;99.90;;;;;;4250030;27;20074;-56
2024/01/25 08:26:27;;;;;;;16.40;10.57;;;13.40;99.90;;;;;;4249818;27;20050;-55
2024/01/25 08:28:30;;;;;;;19.42;10.98;;;13.40;99.90;;;;;;4249824;27;20047;-56
2024/01/25 08:30:33;;;;;;;18.95;10.40;;;13.50;99.90;;;;;;4242416;27;20043;-57
2024/01/25 08:32:35;;;;;;;16.48;9.07;;;13.60;99.90;;;;;;4232768;28;20097;-55
2024/01/25 08:34:37;;;;;;;16.17;9.35;;;13.80;99.90;;;;;;4232495;28;20085;-55
2024/01/25 08:36:39;;;;;;;18.35;8.90;;;13.80;99.90;;;;;;4232616;28;20054;-57
2024/01/25 08:38:41;;;;;;;23.23;9.20;;;14.00;99.90;;;;;;4232831;28;20047;-56
2024/01/25 08:40:45;;;;;;;16.92;8.25;;;14.10;99.90;;;;;;4232487;28;20055;-56
2024/01/25 08:42:47;;;;;;;23.65;10.70;;;14.10;99.90;;;;;;4232565;28;20039;-58
2024/01/25 08:44:49;;;;;;;14.25;7.85;;;14.10;99.90;;;;;;4232590;28;20050;-57
2024/01/25 08:46:54;;;;;;;18.08;9.77;;;14.20;99.90;;;;;;4245683;27;20537;-56
2024/01/25 08:48:56;;;;;;;17.90;10.52;;;14.10;99.90;;;;;;4249458;27;20063;-63
2024/01/25 08:50:58;;;;;;;20.23;10.10;;;14.00;99.90;;;;;;4249525;27;20067;-57
2024/01/25 08:53:01;;;;;;;19.25;9.57;;;14.00;99.90;;;;;;4249598;27;20050;-63
2024/01/25 08:55:04;;;;;;;22.10;7.90;;;14.00;99.90;;;;;;4250035;27;20048;-59
2024/01/25 08:57:07;;;;;;;19.65;9.35;;;14.10;99.90;;;;;;4250323;27;20133;-61
2024/01/25 08:59:09;;;;;;;22.08;9.02;;;14.10;99.90;;;;;;4250012;27;20047;-57
2024/01/25 09:01:11;;;;;;;19.98;8.80;;;14.00;99.90;;;;;;4250097;27;20075;-63
2024/01/25 09:03:14;;;;;;;23.52;8.73;;;14.00;99.90;;;;;;4248392;27;20451;-57
2024/01/25 09:05:16;;;;;;;21.40;7.65;;;14.00;99.90;;;;;;4249762;27;20051;-57
2024/01/25 09:07:19;;;;;;;17.83;7.03;;;14.00;99.90;;;;;;4248877;27;20086;-56
2024/01/25 09:09:21;;;;;;;13.60;6.80;;;14.10;99.90;;;;;;4249846;27;20051;-57
2024/01/25 09:11:23;;;;;;;18.48;6.85;;;14.00;99.90;;;;;;4249073;27;20079;-57
2024/01/25 09:13:26;;;;;;;26.85;8.43;;;14.00;99.90;;;;;;4249368;27;20047;-57
2024/01/25 09:15:29;;;;;;;19.30;8.13;;;14.00;99.90;;;;;;4249269;27;20047;-58
2024/01/25 09:17:31;;;;;;;17.67;6.82;;;14.00;99.90;;;;;;4249342;27;20063;-56
2024/01/25 09:19:34;;;;;;;18.95;7.30;;;14.00;99.90;;;;;;4249184;27;20043;-56
2024/01/25 09:21:39;;;;;;;17.38;6.32;;;13.90;99.90;;;;;;4247436;27;20055;-56
2024/01/25 09:23:41;;;;;;;;;;;14.00;99.90;;;;;;4249276;27;20047;-56
2024/01/25 09:25:44;;;;;;;13.50;5.93;;;14.00;99.90;;;;;;4248817;27;20030;-57
2024/01/25 09:27:46;;;;;;;17.70;7.30;;;13.90;99.90;;;;;;4249133;27;20126;-56
2024/01/25 09:29:50;;;;;;;17.35;4.97;;;13.90;99.90;;;;;;4248851;27;20043;-57
2024/01/25 09:31:53;;;;;;;19.33;5.43;;;14.00;99.90;;;;;;4248954;27;20100;-56
2024/01/25 09:33:55;;;;;;;17.38;6.07;;;14.10;99.90;;;;;;4249073;27;20043;-56
2024/01/25 09:35:57;;;;;;;13.68;5.63;;;14.00;99.90;;;;;;4248605;27;20049;-56
2024/01/25 09:38:00;;;;;;;12.80;5.55;;;14.00;99.90;;;;;;4251321;27;20480;-56
2024/01/25 09:40:03;;;;;;;18.55;5.90;;;14.10;99.90;;;;;;4250533;27;20043;-56
2024/01/25 09:42:07;;;;;;;17.90;5.80;;;14.00;99.90;;;;;;4251527;27;20559;-56
2024/01/25 09:44:10;;;;;;;15.45;5.60;;;14.10;99.90;;;;;;4249178;27;20043;-56
2024/01/25 09:46:15;;;;;;;17.42;6.43;;;14.10;99.90;;;;;;4249439;27;20169;-58
2024/01/25 09:48:18;;;;;;;22.55;6.30;;;14.10;99.90;;;;;;4249676;27;20130;-58
2024/01/25 09:50:21;;;;;;;23.17;6.25;;;14.10;99.90;;;;;;4248551;27;20051;-62
2024/01/25 09:52:25;;;;;;;21.27;6.65;;;14.10;99.90;;;;;;4249952;27;20043;-61
2024/01/25 09:54:29;;;;;;;23.65;6.50;;;14.00;99.90;;;;;;4249730;27;20452;-60
2024/01/25 09:56:33;;;;;;;17.23;6.43;;;14.10;99.90;;;;;;4247080;27;20096;-58
2024/01/25 09:58:41;;;;;;;22.70;6.22;;;14.00;99.90;;;;;;4248746;27;20470;-59
2024/01/25 10:00:44;;;;;;;19.75;5.57;;;14.10;99.90;;;;;;4248538;27;20035;-61
2024/01/25 10:02:52;;;;;;;19.15;5.82;;;14.10;99.90;;;;;;4248437;27;20482;-58
2024/01/25 10:04:54;;;;;;;13.00;3.72;;;14.10;99.90;;;;;;4229679;28;20071;-58
2024/01/25 10:06:57;;;;;;;17.55;5.53;;;14.20;99.90;;;;;;4245705;27;20067;-58
2024/01/25 10:08:59;;;;;;;19.35;5.18;;;14.30;99.90;;;;;;4236141;27;20039;-58
2024/01/25 10:11:02;;;;;;;11.07;3.60;;;14.50;99.90;;;;;;4248275;27;20043;-58
2024/01/25 10:13:05;;;;;;;13.52;3.70;;;14.70;99.90;;;;;;4243944;27;20514;-58
2024/01/25 10:15:08;;;;;;;16.55;5.28;;;14.80;99.90;;;;;;4236015;27;20047;-58
2024/01/25 10:17:10;;;;;;;15.98;5.68;;;14.70;99.90;;;;;;4248014;27;20347;-59
2024/01/25 10:19:14;;;;;;;15.15;4.60;;;14.80;99.90;;;;;;4229626;28;20071;-59
2024/01/25 10:21:17;;;;;;;16.08;5.15;;;15.00;99.90;;;;;;4248166;27;20069;-57
2024/01/25 10:23:21;;;;;;;16.25;4.75;;;14.90;99.90;;;;;;4248228;27;20051;-58
2024/01/25 10:25:24;;;;;;;20.43;5.37;;;15.10;99.90;;;;;;4248101;27;20052;-58
2024/01/25 10:27:26;;;;;;;16.05;5.00;;;15.10;99.90;;;;;;4247856;27;20444;-59
2024/01/25 10:29:34;;;;;;;16.33;5.05;;;15.00;99.90;;;;;;4247839;27;20039;-59
2024/01/25 10:31:40;;;;;;;17.00;5.72;;;15.20;99.90;;;;;;4247265;27;20054;-58